Time;durP1;ratioP1;P1;durP2;ratioP2;P2;SDS_P1;SDS_P2;PMS_P1;PMS_P2;Temp;Humidity;BMP_temperature;BMP_pressure;BME280_temperature;BME280_humidity;BME280_pressure;Samples;Min_cycle;Max_cycle;Signal;HPM_P1;HPM_P2
2020/12/10 00:01:32;;;;;;;26.23;12.55;;;;;;;4.11;100.00;98804.03;6104574;23;20327;-74
2020/12/10 00:03:57;;;;;;;26.63;12.82;;;;;;;4.11;100.00;98795.78;6128491;23;20010;-74
2020/12/10 00:06:23;;;;;;;27.98;12.77;;;;;;;4.12;100.00;98782.84;6104707;23;20017;-74
2020/12/10 00:08:48;;;;;;;24.58;11.57;;;;;;;4.15;100.00;98777.63;6130419;23;20098;-74
2020/12/10 00:11:14;;;;;;;19.30;10.85;;;;;;;4.16;100.00;98773.75;6128206;23;20009;-73
2020/12/10 00:13:39;;;;;;;27.20;12.40;;;;;;;4.16;100.00;98760.00;6130183;23;20021;-74
2020/12/10 00:16:05;;;;;;;21.20;11.27;;;;;;;4.18;100.00;98745.94;6129103;23;20010;-74
2020/12/10 00:18:30;;;;;;;23.08;10.68;;;;;;;4.19;100.00;98742.13;6128720;23;20423;-74
2020/12/10 00:20:56;;;;;;;27.52;10.75;;;;;;;4.19;100.00;98739.38;6128716;23;20032;-74
2020/12/10 00:23:21;;;;;;;23.55;10.60;;;;;;;4.21;100.00;98729.72;6128787;23;20010;-74
2020/12/10 00:25:47;;;;;;;23.80;10.63;;;;;;;4.22;100.00;98720.34;6146371;23;20438;-74
2020/12/10 00:28:12;;;;;;;19.05;10.55;;;;;;;4.24;100.00;98715.38;6163532;23;20036;-74
2020/12/10 00:30:38;;;;;;;21.02;9.85;;;;;;;4.25;100.00;98697.78;6188505;23;20013;-74
2020/12/10 00:33:03;;;;;;;25.73;10.75;;;;;;;4.29;100.00;98691.69;6138309;23;20009;-74
2020/12/10 00:35:29;;;;;;;23.15;10.00;;;;;;;4.30;100.00;98685.09;6163574;23;20009;-74
2020/12/10 00:37:54;;;;;;;21.42;9.30;;;;;;;4.30;100.00;98671.34;6138619;23;20005;-74
2020/12/10 00:40:21;;;;;;;17.30;9.68;;;;;;;4.31;100.00;98664.72;6162767;23;20009;-73
2020/12/10 00:42:47;;;;;;;18.55;9.38;;;;;;;4.34;100.00;98661.38;6138309;23;20001;-74
2020/12/10 00:45:12;;;;;;;15.55;9.45;;;;;;;4.35;100.00;98647.34;6163428;23;20088;-74
2020/12/10 00:47:38;;;;;;;15.02;8.25;;;;;;;4.36;100.00;98643.47;6163272;23;20056;-74
2020/12/10 00:50:03;;;;;;;16.23;9.05;;;;;;;4.40;100.00;98624.44;6188878;23;20060;-74
2020/12/10 00:52:29;;;;;;;13.80;7.88;;;;;;;4.41;100.00;98613.16;6189412;23;20009;-75
2020/12/10 00:54:55;;;;;;;20.17;8.90;;;;;;;4.43;100.00;98610.09;6191087;23;20032;-74
2020/12/10 00:57:21;;;;;;;15.02;8.05;;;;;;;4.46;100.00;98604.84;6165074;23;20005;-74
2020/12/10 00:59:46;;;;;;;16.95;8.32;;;;;;;4.48;100.00;98601.78;6191155;23;20001;-73
2020/12/10 01:02:12;;;;;;;17.88;8.40;;;;;;;4.48;100.00;98579.78;6191032;23;20032;-74
2020/12/10 01:04:37;;;;;;;19.08;8.00;;;;;;;4.50;100.00;98577.56;6164672;23;20271;-74
2020/12/10 01:07:03;;;;;;;13.80;7.07;;;;;;;4.53;100.00;98568.72;6164988;23;20009;-74
2020/12/10 01:09:28;;;;;;;13.43;7.18;;;;;;;4.55;100.00;98568.41;6190744;23;20020;-74
2020/12/10 01:11:54;;;;;;;14.98;6.57;;;;;;;4.54;100.00;98556.63;6140009;23;20009;-74
2020/12/10 01:14:20;;;;;;;17.08;6.82;;;;;;;4.56;100.00;98548.03;6191241;23;20017;-74
2020/12/10 01:16:46;;;;;;;14.43;7.22;;;;;;;4.59;100.00;98540.00;6140192;23;20399;-74
2020/12/10 01:19:12;;;;;;;12.27;6.72;;;;;;;4.61;100.00;98550.72;6190595;23;20028;-74
2020/12/10 01:21:37;;;;;;;17.40;6.63;;;;;;;4.61;100.00;98535.03;6164206;23;20001;-74
2020/12/10 01:24:03;;;;;;;12.13;6.97;;;;;;;4.63;100.00;98527.28;6164633;23;20040;-74
2020/12/10 01:26:30;;;;;;;11.30;6.63;;;;;;;4.64;100.00;98506.91;6143093;23;20022;-74
2020/12/10 01:28:56;;;;;;;11.18;6.57;;;;;;;4.66;100.00;98512.13;6131456;23;20006;-74
2020/12/10 01:31:22;;;;;;;13.40;6.00;;;;;;;4.67;100.00;98511.00;6104964;23;20006;-74
2020/12/10 01:33:47;;;;;;;12.85;6.20;;;;;;;4.68;100.00;98502.47;6130030;23;20431;-74
2020/12/10 01:36:23;;;;;;;13.90;6.35;;;;;;;4.72;100.00;98501.84;6130141;23;20005;-74
2020/12/10 01:38:49;;;;;;;9.80;5.60;;;;;;;4.74;100.00;98494.13;6131273;23;20060;-73
2020/12/10 01:41:15;;;;;;;11.52;6.22;;;;;;;4.75;100.00;98492.97;6131102;23;20479;-73
2020/12/10 01:43:40;;;;;;;13.35;6.13;;;;;;;4.75;100.00;98492.97;6131461;23;20089;-74
2020/12/10 01:46:06;;;;;;;12.77;6.00;;;;;;;4.74;100.00;98488.63;6106048;23;20009;-74
2020/12/10 01:48:32;;;;;;;12.07;6.25;;;;;;;4.77;100.00;98491.56;6129496;23;20021;-74
2020/12/10 01:50:58;;;;;;;11.90;5.90;;;;;;;4.76;100.00;98489.91;6131250;23;20013;-73
2020/12/10 01:53:24;;;;;;;11.38;6.05;;;;;;;4.76;100.00;98478.09;6130131;23;20339;-74
2020/12/10 01:55:49;;;;;;;11.55;5.55;;;;;;;4.78;100.00;98489.63;6131311;23;20025;-73
2020/12/10 01:58:15;;;;;;;9.13;5.50;;;;;;;4.78;100.00;98495.94;6129732;23;20387;-74
2020/12/10 02:00:40;;;;;;;8.70;5.50;;;;;;;4.79;100.00;98496.75;6129557;23;20010;-74
2020/12/10 02:03:06;;;;;;;8.43;5.15;;;;;;;4.79;100.00;98496.75;6105277;23;20014;-74
2020/12/10 02:05:31;;;;;;;10.10;5.40;;;;;;;4.77;100.00;98491.56;6131170;23;20010;-74
2020/12/10 02:07:57;;;;;;;9.20;5.03;;;;;;;4.78;100.00;98500.63;6154448;23;20010;-74
2020/12/10 02:10:22;;;;;;;8.77;4.80;;;;;;;4.78;100.00;98486.88;6104851;23;20005;-74
2020/12/10 02:12:48;;;;;;;9.68;4.80;;;;;;;4.80;100.00;98492.88;6105280;23;20061;-74
2020/12/10 02:15:15;;;;;;;9.70;5.40;;;;;;;4.79;100.00;98492.09;6154477;23;20005;-73
2020/12/10 02:17:41;;;;;;;9.45;4.80;;;;;;;4.81;100.00;98491.75;6129578;23;20010;-74
2020/12/10 02:20:07;;;;;;;7.45;4.70;;;;;;;4.81;100.00;98487.06;6129274;23;20057;-74
2020/12/10 02:22:32;;;;;;;10.40;4.47;;;;;;;4.83;100.00;98492.28;6129632;23;20071;-73
2020/12/10 02:24:58;;;;;;;7.47;4.20;;;;;;;4.84;100.00;98485.66;6131012;23;20010;-73
2020/12/10 02:27:24;;;;;;;7.90;4.55;;;;;;;4.84;100.00;98483.69;6151884;23;20026;-73
2020/12/10 02:29:49;;;;;;;6.53;4.93;;;;;;;4.85;100.00;98479.03;6130258;23;20065;-74
2020/12/10 02:32:15;;;;;;;7.97;4.45;;;;;;;4.85;100.00;98481.78;6105162;23;20458;-73
2020/12/10 02:34:40;;;;;;;8.32;4.32;;;;;;;4.86;100.00;98470.47;6131001;23;20017;-74
2020/12/10 02:37:06;;;;;;;7.88;4.45;;;;;;;4.87;100.00;98466.59;6130667;23;20041;-74
2020/12/10 02:39:31;;;;;;;6.72;4.65;;;;;;;4.88;100.00;98467.44;6130511;23;20010;-74
2020/12/10 02:41:57;;;;;;;8.80;4.88;;;;;;;4.88;100.00;98464.69;6129610;23;20009;-74
2020/12/10 02:44:22;;;;;;;8.07;4.53;;;;;;;4.88;100.00;98461.94;6129720;23;20009;-73
2020/12/10 02:46:48;;;;;;;7.07;4.53;;;;;;;4.89;100.00;98482.78;6129157;23;20010;-73
2020/12/10 02:49:13;;;;;;;7.00;4.40;;;;;;;4.88;100.00;98465.47;6130435;23;20009;-74
2020/12/10 02:51:43;;;;;;;7.63;4.63;;;;;;;4.89;100.00;98466.28;6130712;23;20041;-73
2020/12/10 02:54:08;;;;;;;8.10;4.28;;;;;;;4.89;100.00;98463.53;6130929;23;20077;-73
2020/12/10 02:56:34;;;;;;;7.32;4.22;;;;;;;4.88;100.00;98462.72;6129028;23;20013;-74
2020/12/10 02:58:59;;;;;;;9.20;4.53;;;;;;;4.86;100.00;98462.22;6130760;23;20014;-73
2020/12/10 03:01:25;;;;;;;7.60;4.38;;;;;;;4.87;100.00;98461.09;6130679;23;20006;-74
2020/12/10 03:03:50;;;;;;;9.77;4.70;;;;;;;4.88;100.00;98464.69;6105069;23;20010;-74
2020/12/10 03:06:16;;;;;;;6.78;3.95;;;;;;;4.87;100.00;98460.28;6129067;23;20017;-73
2020/12/10 03:08:41;;;;;;;6.93;4.28;;;;;;;4.86;100.00;98464.16;6130581;23;20013;-74
2020/12/10 03:11:07;;;;;;;6.20;3.95;;;;;;;4.87;100.00;98457.53;6128793;23;20010;-74
2020/12/10 03:13:32;;;;;;;7.03;4.47;;;;;;;4.87;100.00;98454.78;6131090;23;20006;-74
2020/12/10 03:15:58;;;;;;;8.18;4.60;;;;;;;4.88;100.00;98457.22;6104330;23;20017;-74
2020/12/10 03:18:25;;;;;;;8.80;4.47;;;;;;;4.87;100.00;98460.28;6128833;23;20010;-74
2020/12/10 03:20:51;;;;;;;8.45;4.13;;;;;;;4.88;100.00;98453.66;6128995;23;20017;-74
2020/12/10 03:23:17;;;;;;;6.53;4.05;;;;;;;4.87;100.00;98463.84;6131057;23;20029;-74
2020/12/10 03:25:42;;;;;;;7.75;4.32;;;;;;;4.87;100.00;98461.09;6103995;23;20022;-74
2020/12/10 03:28:08;;;;;;;9.70;4.40;;;;;;;4.86;100.00;98453.97;6104590;23;20002;-74
2020/12/10 03:30:33;;;;;;;7.25;3.88;;;;;;;4.86;100.00;98455.91;6128392;23;20014;-74
2020/12/10 03:32:59;;;;;;;6.25;4.13;;;;;;;4.87;100.00;98469.34;6130382;23;20048;-74
2020/12/10 03:35:25;;;;;;;8.73;4.43;;;;;;;4.86;100.00;98458.66;6130333;23;20451;-74
2020/12/10 03:37:51;;;;;;;5.97;3.70;;;;;;;4.88;100.00;98467.44;6128808;23;20423;-74
2020/12/10 03:40:16;;;;;;;6.50;3.90;;;;;;;4.85;100.00;98462.53;6104412;23;20825;-74
2020/12/10 03:42:42;;;;;;;5.97;4.05;;;;;;;4.85;100.00;98471.59;6129290;23;20013;-73
2020/12/10 03:45:07;;;;;;;6.07;4.25;;;;;;;4.85;100.00;98473.53;6130376;23;20069;-74
2020/12/10 03:47:33;;;;;;;7.47;4.15;;;;;;;4.83;100.00;98471.09;6104388;23;20010;-74
2020/12/10 03:49:59;;;;;;;6.78;4.05;;;;;;;4.83;100.00;98473.03;6129022;23;20044;-74
2020/12/10 03:52:24;;;;;;;4.95;3.72;;;;;;;4.83;100.00;98478.53;6104925;23;20010;-74
2020/12/10 03:54:50;;;;;;;6.57;3.95;;;;;;;4.84;100.00;98488.41;6128250;23;20021;-74
2020/12/10 03:57:16;;;;;;;5.18;3.85;;;;;;;4.83;100.00;98486.78;6130303;23;20002;-74
2020/12/10 03:59:41;;;;;;;7.25;4.25;;;;;;;4.80;100.00;98479.94;6129142;23;20018;-74
2020/12/10 04:02:07;;;;;;;7.55;3.97;;;;;;;4.79;100.00;98481.06;6130768;23;20013;-74
2020/12/10 04:04:32;;;;;;;5.50;3.78;;;;;;;4.80;100.00;98479.94;6128499;23;20006;-74
2020/12/10 04:06:58;;;;;;;6.88;3.95;;;;;;;4.80;100.00;98482.69;6104375;23;20017;-74
2020/12/10 04:09:23;;;;;;;8.57;4.00;;;;;;;4.80;100.00;98481.88;6128606;23;20014;-74
2020/12/10 04:11:49;;;;;;;7.65;4.53;;;;;;;4.79;100.00;98483.00;6104826;23;20333;-73
2020/12/10 04:14:14;;;;;;;5.03;3.60;;;;;;;4.78;100.00;98495.94;6130001;23;20057;-74
2020/12/10 04:16:40;;;;;;;5.30;3.67;;;;;;;4.78;100.00;98495.13;6130089;23;20009;-74
2020/12/10 04:19:05;;;;;;;4.57;3.42;;;;;;;4.78;100.00;98495.13;6128516;23;20010;-74
2020/12/10 04:21:31;;;;;;;6.97;4.40;;;;;;;4.77;100.00;98497.06;6128994;23;20052;-73
2020/12/10 04:23:56;;;;;;;5.57;3.70;;;;;;;4.77;100.00;98501.75;6128383;23;20006;-74
2020/12/10 04:26:22;;;;;;;8.18;4.90;;;;;;;4.76;100.00;98502.84;6089856;23;20022;-74
2020/12/10 04:28:48;;;;;;;5.68;4.32;;;;;;;4.76;100.00;98506.41;6105800;23;20013;-74
2020/12/10 04:31:16;;;;;;;7.72;4.38;;;;;;;4.77;100.00;98507.25;6105846;23;20017;-74
2020/12/10 04:33:41;;;;;;;5.25;3.90;;;;;;;4.76;100.00;98503.66;6130446;23;20006;-74
2020/12/10 04:36:07;;;;;;;4.93;3.58;;;;;;;4.75;100.00;98496.53;6132070;23;20014;-74
2020/12/10 04:38:32;;;;;;;6.35;4.40;;;;;;;4.75;100.00;98502.03;6132067;23;20032;-74
2020/12/10 04:41:02;;;;;;;7.22;4.40;;;;;;;4.75;100.00;98503.97;6131829;23;20371;-74
2020/12/10 04:43:31;;;;;;;6.10;4.30;;;;;;;4.73;100.00;98512.53;6106384;23;20078;-74
2020/12/10 04:45:58;;;;;;;7.00;4.43;;;;;;;4.74;100.00;98516.13;6106671;23;20446;-74
2020/12/10 04:48:28;;;;;;;6.63;3.92;;;;;;;4.73;100.00;98514.47;6105836;23;20380;-73
2020/12/10 04:50:55;;;;;;;5.90;4.20;;;;;;;4.72;100.00;98513.66;6131864;23;20006;-74
2020/12/10 04:53:23;;;;;;;6.07;3.90;;;;;;;4.72;100.00;98515.59;6130584;23;20005;-74
2020/12/10 04:55:48;;;;;;;6.47;4.13;;;;;;;4.72;100.00;98521.09;6130041;23;20089;-74
2020/12/10 04:58:14;;;;;;;7.55;4.13;;;;;;;4.70;100.00;98522.19;6130331;23;20010;-74
2020/12/10 05:00:39;;;;;;;5.53;3.80;;;;;;;4.70;100.00;98522.19;6131991;23;20021;-74
2020/12/10 05:03:05;;;;;;;6.53;4.10;;;;;;;4.74;100.00;98532.63;6130228;23;20372;-74
2020/12/10 05:05:31;;;;;;;6.13;3.88;;;;;;;4.72;100.00;98535.66;6105971;23;20010;-74
2020/12/10 05:07:58;;;;;;;4.45;3.40;;;;;;;4.72;100.00;98523.84;6129682;23;20010;-74
2020/12/10 05:10:24;;;;;;;6.65;4.20;;;;;;;4.70;100.00;98527.69;6130080;23;20065;-74
2020/12/10 05:12:50;;;;;;;6.00;4.03;;;;;;;4.70;100.00;98535.94;6130530;23;20006;-74
2020/12/10 05:15:18;;;;;;;5.72;3.83;;;;;;;4.73;100.00;98547.47;6129934;23;20016;-73
2020/12/10 05:17:44;;;;;;;6.50;3.70;;;;;;;4.72;100.00;98541.16;6106000;23;20016;-73
2020/12/10 05:20:10;;;;;;;4.85;3.65;;;;;;;4.70;100.00;98544.19;6105737;23;20009;-74
2020/12/10 05:22:43;;;;;;;5.35;3.55;;;;;;;4.70;100.00;98549.69;6131618;23;20017;-74
2020/12/10 05:25:09;;;;;;;5.43;3.28;;;;;;;4.70;100.00;98544.19;6105050;23;20335;-74
2020/12/10 05:27:34;;;;;;;4.63;2.55;;;;;;;4.73;100.00;98550.22;6129837;23;20022;-74
2020/12/10 05:30:01;;;;;;;5.75;3.42;;;;;;;4.70;100.00;98548.88;6130841;23;20010;-74
2020/12/10 05:32:34;;;;;;;6.38;3.45;;;;;;;4.72;100.00;98549.41;6105650;23;20443;-74
2020/12/10 05:35:24;;;;;;;5.28;3.20;;;;;;;4.72;100.00;98560.41;6129573;23;20078;-74
2020/12/10 05:37:51;;;;;;;4.88;3.17;;;;;;;4.72;99.97;98554.91;6130310;23;20017;-74
2020/12/10 05:40:16;;;;;;;3.28;2.63;;;;;;;4.75;100.00;98564.47;6105241;23;20017;-74
2020/12/10 05:42:44;;;;;;;4.95;3.10;;;;;;;4.73;100.00;98561.22;6129833;23;20427;-74
2020/12/10 05:45:22;;;;;;;4.68;2.88;;;;;;;4.73;100.00;98564.78;6130206;23;20014;-73
2020/12/10 05:47:50;;;;;;;4.57;3.10;;;;;;;4.74;100.00;98571.13;6131170;23;20065;-74
2020/12/10 05:50:17;;;;;;;6.57;3.22;;;;;;;4.75;100.00;98580.97;6129878;23;20006;-73
2020/12/10 05:52:48;;;;;;;4.93;2.67;;;;;;;4.74;100.00;98587.63;6105049;23;20013;-74
2020/12/10 05:55:14;;;;;;;4.32;2.95;;;;;;;4.73;100.00;98581.28;6106561;23;20066;-74
2020/12/10 05:57:41;;;;;;;4.05;2.85;;;;;;;4.76;100.00;98579.84;6105710;23;20371;-73
2020/12/10 06:00:07;;;;;;;4.07;3.15;;;;;;;4.75;100.00;98583.72;6131352;23;20034;-73
2020/12/10 06:02:33;;;;;;;4.32;2.90;;;;;;;4.74;100.00;98588.44;6129542;23;20006;-74
2020/12/10 06:04:59;;;;;;;3.95;2.60;;;;;;;4.76;100.00;98582.59;6129783;23;20006;-73
2020/12/10 06:07:24;;;;;;;5.72;3.42;;;;;;;4.74;100.00;98593.94;6105744;23;20009;-74
2020/12/10 06:09:50;;;;;;;6.15;3.55;;;;;;;4.76;100.00;98594.41;6130887;23;20020;-74
2020/12/10 06:12:15;;;;;;;5.55;3.40;;;;;;;4.76;100.00;98597.16;6129581;23;20002;-74
2020/12/10 06:14:54;;;;;;;5.72;3.63;;;;;;;4.76;100.00;98601.84;6081798;23;20010;-74
2020/12/10 06:17:21;;;;;;;5.55;3.40;;;;;;;4.78;100.00;98605.13;6131537;23;20085;-74
2020/12/10 06:19:48;;;;;;;4.82;3.35;;;;;;;4.77;100.00;98614.50;6129363;23;20005;-73
2020/12/10 06:22:30;;;;;;;5.63;3.90;;;;;;;4.78;100.00;98611.44;6129417;23;20183;-73
2020/12/10 06:25:14;;;;;;;4.82;3.55;;;;;;;4.79;100.00;98617.75;6129188;23;20038;-74
2020/12/10 06:27:39;;;;;;;6.10;3.40;;;;;;;4.78;100.00;98619.69;6109023;23;20032;-74
2020/12/10 06:30:09;;;;;;;12.18;4.22;;;;;;;4.80;100.00;98624.91;6130461;23;20010;-73
2020/12/10 06:32:39;;;;;;;6.88;3.75;;;;;;;4.81;100.00;98632.03;6130740;23;20013;-74
2020/12/10 06:35:05;;;;;;;6.00;4.35;;;;;;;4.80;100.00;98635.91;6130406;23;20025;-74
2020/12/10 06:37:31;;;;;;;7.20;3.70;;;;;;;4.79;100.00;98648.84;6105600;23;20014;-73
2020/12/10 06:39:58;;;;;;;5.57;3.40;;;;;;;4.80;100.00;98642.22;6130789;23;20017;-73
2020/12/10 06:42:24;;;;;;;7.05;3.65;;;;;;;4.78;100.00;98652.69;6129233;23;20054;-74
2020/12/10 06:44:49;;;;;;;5.72;4.00;;;;;;;4.77;100.00;98653.00;6129375;23;20013;-75
2020/12/10 06:47:15;;;;;;;9.13;4.15;;;;;;;4.76;100.00;98657.66;6129338;23;20017;-73
2020/12/10 06:49:41;;;;;;;7.65;4.15;;;;;;;4.75;100.00;98656.06;6129711;23;20017;-73
2020/12/10 06:52:14;;;;;;;7.25;4.38;;;;;;;4.74;100.00;98667.38;6128784;23;20010;-73
2020/12/10 06:55:03;;;;;;;8.23;4.07;;;;;;;4.74;100.00;98676.44;6129698;23;20010;-73
2020/12/10 06:57:49;;;;;;;8.07;4.68;;;;;;;4.70;100.00;98681.69;6129382;23;20377;-73
2020/12/10 07:00:34;;;;;;;11.38;4.22;;;;;;;4.68;100.00;98681.19;6130993;23;20013;-74
2020/12/10 07:03:25;;;;;;;9.90;4.18;;;;;;;4.67;100.00;98689.72;6130642;23;20005;-74
2020/12/10 07:05:51;;;;;;;9.52;3.92;;;;;;;4.66;100.00;98690.84;6131017;23;20010;-74
2020/12/10 07:08:18;;;;;;;8.20;3.92;;;;;;;4.65;100.00;98695.53;6130658;23;20061;-74
2020/12/10 07:10:48;;;;;;;12.65;3.80;;;;;;;4.62;100.00;98690.63;6128676;23;20090;-73
2020/12/10 07:13:16;;;;;;;8.88;4.57;;;;;;;4.62;100.00;98696.13;6129282;23;20013;-73
2020/12/10 07:15:48;;;;;;;13.43;4.93;;;;;;;4.62;100.00;98706.31;6129529;23;20335;-73
2020/12/10 07:18:14;;;;;;;9.52;4.22;;;;;;;4.60;100.00;98703.06;6128655;23;20010;-73
2020/12/10 07:20:39;;;;;;;5.93;3.22;;;;;;;4.60;100.00;98712.13;6080687;23;20013;-74
2020/12/10 07:23:06;;;;;;;9.10;4.15;;;;;;;4.61;100.00;98715.69;6129129;23;20010;-74
2020/12/10 07:25:31;;;;;;;13.35;4.88;;;;;;;4.60;100.00;98720.38;6138850;23;20025;-74
2020/12/10 07:27:59;;;;;;;9.75;4.82;;;;;;;4.60;100.00;98716.81;6138550;23;20013;-74
2020/12/10 07:30:26;;;;;;;9.68;3.75;;;;;;;4.60;100.00;98720.38;6138507;23;20055;-74
2020/12/10 07:32:53;;;;;;;10.77;3.70;;;;;;;4.60;100.00;98725.88;6163537;23;20017;-75
2020/12/10 07:35:29;;;;;;;11.27;4.00;;;;;;;4.60;100.00;98725.88;6164067;23;20316;-75
2020/12/10 07:37:54;;;;;;;14.48;4.93;;;;;;;4.59;100.00;98732.47;6189696;23;20011;-74
2020/12/10 07:40:20;;;;;;;8.25;3.30;;;;;;;4.59;100.00;98731.66;6138402;23;20414;-74
2020/12/10 07:42:46;;;;;;;8.77;3.17;;;;;;;4.59;100.00;98731.66;6163455;23;20008;-74
2020/12/10 07:45:18;;;;;;;9.27;3.40;;;;;;;4.58;100.00;98739.09;6163621;23;20036;-74
2020/12/10 07:48:01;;;;;;;9.32;3.88;;;;;;;4.57;100.00;98750.38;6138984;23;20009;-73
2020/12/10 07:50:27;;;;;;;9.83;3.43;;;;;;;4.55;100.00;98756.19;6189518;23;20009;-74
2020/12/10 07:52:56;;;;;;;10.02;3.80;;;;;;;4.54;100.00;98757.31;6188088;23;20015;-74
2020/12/10 07:55:22;;;;;;;8.05;3.00;;;;;;;4.51;100.00;98763.38;6189376;23;20016;-74
2020/12/10 07:58:12;;;;;;;11.25;3.30;;;;;;;4.49;100.00;98765.63;6163796;23;20431;-74
2020/12/10 08:00:38;;;;;;;9.52;3.20;;;;;;;4.47;100.00;98771.41;6189789;23;20001;-74
2020/12/10 08:03:19;;;;;;;10.68;3.60;;;;;;;4.46;100.00;98777.22;6163736;23;20059;-74
2020/12/10 08:05:53;;;;;;;11.70;3.10;;;;;;;4.45;100.00;98775.56;6191685;23;20438;-74
2020/12/10 08:08:31;;;;;;;9.63;2.90;;;;;;;4.43;100.00;98786.88;6167363;23;20009;-73
2020/12/10 08:11:05;;;;;;;12.80;3.92;;;;;;;4.42;100.00;98776.97;6141439;23;20460;-74
2020/12/10 08:13:31;;;;;;;7.30;3.17;;;;;;;4.40;100.00;98790.22;6191884;23;20005;-74
2020/12/10 08:15:56;;;;;;;10.27;3.22;;;;;;;4.40;100.00;98797.59;6140753;23;20005;-74
2020/12/10 08:18:22;;;;;;;10.93;3.17;;;;;;;4.39;100.00;98796.78;6140121;23;20082;-74
2020/12/10 08:20:48;;;;;;;14.27;3.38;;;;;;;4.39;100.00;98806.97;6165474;23;20009;-74
2020/12/10 08:23:15;;;;;;;8.50;3.10;;;;;;;4.39;100.00;98812.47;6140584;23;20005;-74
2020/12/10 08:25:41;;;;;;;7.78;2.83;;;;;;;4.38;100.00;98814.41;6129149;23;20444;-73
2020/12/10 08:28:07;;;;;;;10.63;3.45;;;;;;;4.38;100.00;98819.09;6130647;23;20017;-74
2020/12/10 08:30:34;;;;;;;9.10;2.40;;;;;;;4.38;100.00;98819.91;6105235;23;20006;-74
2020/12/10 08:33:00;;;;;;;13.32;3.30;;;;;;;4.39;100.00;98823.47;6131828;23;20021;-74
2020/12/10 08:35:29;;;;;;;13.30;3.10;;;;;;;4.40;100.00;98823.19;6106321;23;20006;-74
2020/12/10 08:37:54;;;;;;;11.55;3.28;;;;;;;4.41;100.00;98829.50;6106686;23;20017;-73
2020/12/10 08:40:24;;;;;;;11.27;3.35;;;;;;;4.43;100.00;98822.59;6154844;23;20014;-74
2020/12/10 08:42:50;;;;;;;10.30;3.03;;;;;;;4.45;100.00;98827.78;6132438;23;20006;-73
2020/12/10 08:45:46;;;;;;;7.82;3.42;;;;;;;4.48;100.00;98828.03;6130329;23;20006;-73
2020/12/10 08:48:12;;;;;;;12.43;3.05;;;;;;;4.50;100.00;98838.72;6128416;23;20014;-74
2020/12/10 08:50:48;;;;;;;11.45;3.25;;;;;;;4.51;100.00;98837.59;6130547;23;20330;-74
2020/12/10 08:53:15;;;;;;;12.63;3.05;;;;;;;4.53;100.00;98842.81;6130621;23;20041;-74
2020/12/10 08:55:45;;;;;;;8.77;3.15;;;;;;;4.55;100.00;98846.09;6131831;23;20024;-73
2020/12/10 08:58:21;;;;;;;9.88;3.03;;;;;;;4.57;100.00;98850.19;6130283;23;20017;-74
2020/12/10 09:00:50;;;;;;;12.50;3.33;;;;;;;4.60;100.00;98855.09;6130272;23;20041;-73
2020/12/10 09:03:16;;;;;;;10.80;3.30;;;;;;;4.62;100.00;98861.09;6131588;23;20033;-74
2020/12/10 09:05:42;;;;;;;7.95;3.05;;;;;;;4.65;100.00;98860.53;6106434;23;20017;-74
2020/12/10 09:08:08;;;;;;;7.05;2.80;;;;;;;4.68;100.00;98865.44;6130285;23;20009;-74
2020/12/10 09:10:35;;;;;;;10.65;3.85;;;;;;;4.74;100.00;98868.13;6105551;23;20010;-74
2020/12/10 09:13:01;;;;;;;10.65;2.80;;;;;;;4.79;100.00;98876.28;6106068;23;20010;-74
2020/12/10 09:15:27;;;;;;;8.95;2.88;;;;;;;4.84;100.00;98876.22;6106218;23;20018;-74
2020/12/10 09:17:55;;;;;;;11.05;2.97;;;;;;;4.91;100.00;98890.44;6105700;23;20396;-74
2020/12/10 09:20:20;;;;;;;11.77;3.78;;;;;;;4.96;100.00;98882.13;6105758;23;20024;-74
2020/12/10 09:22:46;;;;;;;10.68;3.60;;;;;;;5.01;100.00;98895.78;6131626;23;20009;-73
2020/12/10 09:25:12;;;;;;;10.32;3.05;;;;;;;5.09;100.00;98888.78;6130029;23;20502;-74
2020/12/10 09:27:37;;;;;;;15.25;4.03;;;;;;;5.17;100.00;98895.56;6115693;23;20414;-74
2020/12/10 09:30:07;;;;;;;12.00;3.85;;;;;;;5.25;100.00;98897.66;6163717;23;20009;-74
2020/12/10 09:32:34;;;;;;;16.30;3.97;;;;;;;5.32;100.00;98906.34;6115079;23;20046;-74
2020/12/10 09:35:07;;;;;;;12.80;3.75;;;;;;;5.40;100.00;98905.66;6140519;23;20056;-73
2020/12/10 09:37:36;;;;;;;10.13;3.35;;;;;;;5.49;100.00;98911.31;6190880;23;20005;-73
2020/12/10 09:40:03;;;;;;;13.57;3.55;;;;;;;5.56;100.00;98909.81;6190225;23;20005;-74
2020/12/10 09:42:28;;;;;;;18.45;3.80;;;;;;;5.67;100.00;98912.41;6164310;23;20008;-73
2020/12/10 09:44:54;;;;;;;11.32;3.65;;;;;;;5.75;100.00;98911.72;6165063;23;20064;-74
2020/12/10 09:47:27;;;;;;;14.85;4.00;;;;;;;5.83;100.00;98916.56;6165577;23;20008;-73
2020/12/10 09:49:53;;;;;;;19.45;4.03;;;;;;;5.90;100.00;98916.97;6140559;23;20016;-73
2020/12/10 09:52:19;;;;;;;18.27;3.92;;;;;;;5.98;100.00;98921.81;6190295;23;20009;-74
2020/12/10 09:59:50;;;;;;;14.20;4.22;;;;;;;6.18;100.00;98934.41;6165776;23;20009;-74
2020/12/10 10:02:18;;;;;;;12.43;4.10;;;;;;;6.24;100.00;98932.38;6139461;23;20069;-74
2020/12/10 10:04:44;;;;;;;13.30;3.63;;;;;;;6.30;100.00;98933.94;6164242;23;20005;-74
2020/12/10 10:07:10;;;;;;;14.57;4.03;;;;;;;6.36;100.00;98938.25;6140121;23;20009;-74
2020/12/10 10:09:37;;;;;;;16.23;3.65;;;;;;;6.42;99.53;98939.78;6139335;23;20012;-74
2020/12/10 10:12:04;;;;;;;12.93;3.70;;;;;;;6.47;99.56;98942.44;6164238;23;20012;-74
2020/12/10 10:14:31;;;;;;;15.88;3.30;;;;;;;6.55;99.81;98949.19;6164777;23;20342;-74
2020/12/10 10:16:57;;;;;;;12.40;3.58;;;;;;;6.59;100.00;98938.34;6115899;23;20035;-73
2020/12/10 10:19:26;;;;;;;11.40;3.13;;;;;;;6.66;99.64;98953.38;6163847;23;20008;-71
2020/12/10 10:21:54;;;;;;;13.88;4.07;;;;;;;6.73;100.00;98944.69;6139446;23;20009;-71
2020/12/10 10:24:22;;;;;;;11.82;3.65;;;;;;;6.80;98.90;98944.25;6139003;23;20033;-74
2020/12/10 10:26:49;;;;;;;11.65;3.08;;;;;;;6.87;98.00;98951.00;6189401;23;20080;-74
2020/12/10 10:29:19;;;;;;;13.27;3.20;;;;;;;6.93;97.47;98947.03;6163506;23;20493;-74
2020/12/10 10:31:46;;;;;;;11.43;3.53;;;;;;;7.01;98.13;98952.94;6140131;23;20091;-73
2020/12/10 10:34:11;;;;;;;9.88;3.17;;;;;;;7.09;97.09;98952.22;6138077;23;20016;-74
2020/12/10 10:36:38;;;;;;;10.60;3.80;;;;;;;7.17;96.75;98951.50;6164189;23;20009;-74
2020/12/10 10:39:16;;;;;;;14.20;3.85;;;;;;;7.25;96.60;98964.56;6163480;23;20083;-74
2020/12/10 10:41:45;;;;;;;18.95;4.10;;;;;;;7.34;96.71;98964.66;6139204;23;20009;-74
2020/12/10 10:44:10;;;;;;;10.55;4.25;;;;;;;7.41;95.71;98958.69;6163717;23;20009;-74
2020/12/10 10:46:36;;;;;;;18.80;4.90;;;;;;;7.50;96.77;98965.16;6190263;23;20327;-74
2020/12/10 10:49:03;;;;;;;13.93;4.22;;;;;;;7.56;97.25;98970.22;6139176;23;20005;-74
2020/12/10 10:51:51;;;;;;;15.35;4.80;;;;;;;7.64;96.37;98984.44;6163462;23;20223;-74
2020/12/10 10:54:16;;;;;;;19.63;4.20;;;;;;;7.74;98.82;98981.41;6188312;23;20005;-74
2020/12/10 10:56:42;;;;;;;15.50;3.92;;;;;;;7.81;98.67;98988.16;6163873;23;20012;-74
2020/12/10 10:59:15;;;;;;;13.07;3.95;;;;;;;7.87;96.42;98983.31;6190292;23;20020;-74
2020/12/10 11:01:40;;;;;;;10.07;3.90;;;;;;;7.92;95.68;98991.50;6141537;23;20015;-74
2020/12/10 11:04:06;;;;;;;13.80;3.65;;;;;;;7.98;95.59;98984.72;6163673;23;20005;-74
2020/12/10 11:06:32;;;;;;;11.40;3.67;;;;;;;8.03;94.37;98992.06;6163610;23;20418;-74
2020/12/10 11:08:57;;;;;;;11.25;3.60;;;;;;;8.08;94.83;98986.41;6189952;23;20009;-74
2020/12/10 11:11:23;;;;;;;10.98;3.35;;;;;;;8.12;94.19;98984.66;6138485;23;20013;-74
2020/12/10 11:13:49;;;;;;;9.80;3.35;;;;;;;8.17;95.44;98987.28;6163613;23;20068;-77
2020/12/10 11:16:15;;;;;;;16.00;3.90;;;;;;;8.23;97.40;98991.53;6114117;23;20028;-75
2020/12/10 11:18:41;;;;;;;18.08;4.07;;;;;;;8.26;98.07;98996.44;6163733;23;20148;-74
2020/12/10 11:21:08;;;;;;;9.68;2.95;;;;;;;8.30;96.42;98988.31;6138660;23;20012;-74
2020/12/10 11:23:34;;;;;;;13.63;3.03;;;;;;;8.33;95.25;98996.03;6138370;23;20064;-74
2020/12/10 11:25:59;;;;;;;13.80;3.60;;;;;;;8.38;95.89;99006.13;6188988;23;20342;-74
2020/12/10 11:28:25;;;;;;;8.98;3.38;;;;;;;8.43;95.44;99004.06;6163230;23;20012;-74
2020/12/10 11:30:59;;;;;;;13.70;4.00;;;;;;;8.46;97.02;98994.31;6141586;23;20016;-74
2020/12/10 11:33:37;;;;;;;13.02;3.20;;;;;;;8.49;95.50;99001.97;6139195;23;20072;-77
2020/12/10 11:36:04;;;;;;;12.43;3.88;;;;;;;8.54;96.46;98998.28;6138624;23;20004;-74